sensor_id;sensor_type;location;lat;lon;timestamp;pressure;altitude;pressure_sealevel;temperature;humidity
68508;BME280;55510;49.560;19.090;2022-12-19T11:07:17;98039.56;;;5.35;46.67
68508;BME280;55510;49.560;19.090;2022-12-19T11:16:37;98032.16;;;3.98;50.77
68508;BME280;55510;49.560;19.090;2022-12-19T11:19:38;98022.16;;;3.67;49.66
68508;BME280;55510;49.560;19.090;2022-12-19T11:22:50;98018.84;;;3.56;50.27
68508;BME280;55510;49.560;19.090;2022-12-19T11:25:56;98025.28;;;3.70;51.11
68508;BME280;55510;49.560;19.090;2022-12-19T11:29:02;98025.19;;;3.88;50.71
68508;BME280;55510;49.560;19.090;2022-12-19T11:32:03;98024.66;;;3.42;51.16
68508;BME280;55510;49.560;19.090;2022-12-19T11:38:25;98019.47;;;2.97;52.79
68508;BME280;55510;49.560;19.090;2022-12-19T11:41:34;98019.00;;;2.75;53.65
68508;BME280;55510;49.560;19.090;2022-12-19T11:44:48;98015.81;;;2.90;54.24
68508;BME280;55510;49.560;19.090;2022-12-19T11:47:54;98013.88;;;2.92;53.71
68508;BME280;55510;49.560;19.090;2022-12-19T11:51:13;98003.31;;;2.66;53.30
68508;BME280;55510;49.560;19.090;2022-12-19T11:54:22;97999.44;;;2.34;54.63
68508;BME280;55510;49.560;19.090;2022-12-19T11:57:25;98002.91;;;2.34;55.25
68508;BME280;55510;49.560;19.090;2022-12-19T12:00:26;98006.34;;;2.53;55.14
68508;BME280;55510;49.560;19.090;2022-12-19T12:06:47;97988.41;;;2.48;55.21
68508;BME280;55510;49.560;19.090;2022-12-19T12:10:16;97984.59;;;2.42;56.30
68508;BME280;55510;49.560;19.090;2022-12-19T12:26:51;97974.84;;;1.80;57.19
68508;BME280;55510;49.560;19.090;2022-12-19T12:30:03;97971.72;;;1.67;56.50
68508;BME280;55510;49.560;19.090;2022-12-19T12:33:12;97968.88;;;1.60;56.64
68508;BME280;55510;49.560;19.090;2022-12-19T12:36:24;97957.44;;;1.51;55.24
68508;BME280;55510;49.560;19.090;2022-12-19T12:46:03;97955.78;;;0.94;56.60
68508;BME280;55510;49.560;19.090;2022-12-19T12:49:22;97955.13;;;0.82;57.15
68508;BME280;55510;49.560;19.090;2022-12-19T12:52:43;97955.53;;;0.78;57.35
68508;BME280;55510;49.560;19.090;2022-12-19T12:55:47;97948.59;;;0.49;57.92
68508;BME280;55510;49.560;19.090;2022-12-19T13:01:56;97953.56;;;0.22;58.50
68508;BME280;55510;49.560;19.090;2022-12-19T13:04:59;97951.78;;;0.33;58.88
68508;BME280;55510;49.560;19.090;2022-12-19T13:14:48;97939.50;;;0.13;59.49
68508;BME280;55510;49.560;19.090;2022-12-19T13:20:50;97942.25;;;-0.18;60.47
68508;BME280;55510;49.560;19.090;2022-12-19T13:24:11;97943.72;;;-0.45;61.00
68508;BME280;55510;49.560;19.090;2022-12-19T13:30:19;97944.41;;;-0.93;62.10
68508;BME280;55510;49.560;19.090;2022-12-19T13:33:20;97941.03;;;-1.15;63.23
68508;BME280;55510;49.560;19.090;2022-12-19T13:46:43;97946.66;;;-1.62;65.69
68508;BME280;55510;49.560;19.090;2022-12-19T13:49:45;97935.72;;;-1.77;66.83
68508;BME280;55510;49.560;19.090;2022-12-19T13:52:49;97926.72;;;-1.84;68.08
68508;BME280;55510;49.560;19.090;2022-12-19T13:56:14;97925.41;;;-2.00;68.97
68508;BME280;55510;49.560;19.090;2022-12-19T13:59:15;97935.75;;;-2.10;69.76
68508;BME280;55510;49.560;19.090;2022-12-19T14:05:37;97937.94;;;-2.59;70.82
68508;BME280;55510;49.560;19.090;2022-12-19T14:08:39;97932.59;;;-2.69;70.62
68508;BME280;55510;49.560;19.090;2022-12-19T14:11:41;97931.06;;;-2.71;70.79
68508;BME280;55510;49.560;19.090;2022-12-19T14:14:50;97937.94;;;-2.82;70.45
68508;BME280;55510;49.560;19.090;2022-12-19T14:18:22;97941.28;;;-2.91;70.61
68508;BME280;55510;49.560;19.090;2022-12-19T14:21:25;97939.16;;;-2.97;69.45
68508;BME280;55510;49.560;19.090;2022-12-19T14:24:31;97937.03;;;-3.03;69.74
68508;BME280;55510;49.560;19.090;2022-12-19T14:27:46;97932.75;;;-3.04;69.91
68508;BME280;55510;49.560;19.090;2022-12-19T14:30:55;97937.72;;;-3.13;70.06
68508;BME280;55510;49.560;19.090;2022-12-19T14:33:58;97932.50;;;-3.24;71.41
68508;BME280;55510;49.560;19.090;2022-12-19T14:36:59;97935.09;;;-3.47;73.13
68508;BME280;55510;49.560;19.090;2022-12-19T14:40:16;97923.00;;;-3.59;72.71
68508;BME280;55510;49.560;19.090;2022-12-19T14:43:23;97922.53;;;-3.65;72.99
68508;BME280;55510;49.560;19.090;2022-12-19T14:46:40;97919.91;;;-3.65;73.12
68508;BME280;55510;49.560;19.090;2022-12-19T14:49:41;97902.66;;;-3.66;72.13
68508;BME280;55510;49.560;19.090;2022-12-19T14:52:43;97903.50;;;-3.54;70.65
68508;BME280;55510;49.560;19.090;2022-12-19T14:55:45;97896.97;;;-3.59;71.00
68508;BME280;55510;49.560;19.090;2022-12-19T14:58:53;97893.91;;;-3.65;72.16
68508;BME280;55510;49.560;19.090;2022-12-19T15:05:13;97893.97;;;-3.78;72.42
68508;BME280;55510;49.560;19.090;2022-12-19T15:08:27;97897.66;;;-3.91;74.44
68508;BME280;55510;49.560;19.090;2022-12-19T15:11:34;97899.97;;;-4.00;75.14
68508;BME280;55510;49.560;19.090;2022-12-19T15:15:08;97896.34;;;-4.22;75.28
68508;BME280;55510;49.560;19.090;2022-12-19T15:21:22;97900.88;;;-4.12;76.02
68508;BME280;55510;49.560;19.090;2022-12-19T15:24:23;97889.41;;;-4.45;76.38
68508;BME280;55510;49.560;19.090;2022-12-19T15:27:24;97886.47;;;-4.41;76.49
68508;BME280;55510;49.560;19.090;2022-12-19T15:30:26;97891.22;;;-4.34;76.91
68508;BME280;55510;49.560;19.090;2022-12-19T15:33:30;97891.50;;;-4.51;77.46
68508;BME280;55510;49.560;19.090;2022-12-19T15:36:31;97890.00;;;-4.66;76.99
68508;BME280;55510;49.560;19.090;2022-12-19T15:39:31;97878.69;;;-4.65;77.77
68508;BME280;55510;49.560;19.090;2022-12-19T15:42:32;97879.88;;;-4.82;77.86
68508;BME280;55510;49.560;19.090;2022-12-19T15:45:34;97880.28;;;-4.75;78.58
68508;BME280;55510;49.560;19.090;2022-12-19T15:48:38;97877.78;;;-4.53;77.70
68508;BME280;55510;49.560;19.090;2022-12-19T15:51:38;97870.16;;;-4.67;77.21
68508;BME280;55510;49.560;19.090;2022-12-19T15:54:39;97862.38;;;-4.67;76.43
68508;BME280;55510;49.560;19.090;2022-12-19T15:57:43;97859.63;;;-4.17;75.02
68508;BME280;55510;49.560;19.090;2022-12-19T16:00:51;97861.69;;;-4.33;74.43
68508;BME280;55510;49.560;19.090;2022-12-19T16:03:54;97856.22;;;-4.06;73.14
68508;BME280;55510;49.560;19.090;2022-12-19T16:06:56;97858.88;;;-3.72;70.25
68508;BME280;55510;49.560;19.090;2022-12-19T16:09:56;97856.63;;;-3.76;68.64
68508;BME280;55510;49.560;19.090;2022-12-19T16:12:57;97860.56;;;-3.48;67.97
68508;BME280;55510;49.560;19.090;2022-12-19T16:15:58;97859.00;;;-3.51;70.12
68508;BME280;55510;49.560;19.090;2022-12-19T16:19:02;97856.28;;;-3.72;70.33
68508;BME280;55510;49.560;19.090;2022-12-19T16:22:15;97857.94;;;-3.82;70.70
68508;BME280;55510;49.560;19.090;2022-12-19T16:25:16;97849.84;;;-4.02;72.20
68508;BME280;55510;49.560;19.090;2022-12-19T16:28:27;97850.75;;;-4.14;72.70
68508;BME280;55510;49.560;19.090;2022-12-19T16:31:29;97851.78;;;-3.92;72.97
68508;BME280;55510;49.560;19.090;2022-12-19T16:34:29;97849.16;;;-3.92;72.40
68508;BME280;55510;49.560;19.090;2022-12-19T16:37:30;97846.81;;;-3.96;72.66
68508;BME280;55510;49.560;19.090;2022-12-19T16:40:31;97848.06;;;-4.01;73.35
68508;BME280;55510;49.560;19.090;2022-12-19T16:43:36;97844.44;;;-3.87;73.10
68508;BME280;55510;49.560;19.090;2022-12-19T16:46:37;97848.06;;;-4.01;73.62
68508;BME280;55510;49.560;19.090;2022-12-19T16:49:39;97852.19;;;-4.10;73.97
68508;BME280;55510;49.560;19.090;2022-12-19T16:52:39;97841.16;;;-4.25;74.97
68508;BME280;55510;49.560;19.090;2022-12-19T16:55:43;97850.03;;;-4.28;75.79
68508;BME280;55510;49.560;19.090;2022-12-19T16:58:44;97848.25;;;-4.52;76.95
68508;BME280;55510;49.560;19.090;2022-12-19T17:01:46;97846.38;;;-4.49;76.28
68508;BME280;55510;49.560;19.090;2022-12-19T17:04:46;97845.72;;;-4.40;75.14
68508;BME280;55510;49.560;19.090;2022-12-19T17:07:48;97837.88;;;-4.16;74.78
68508;BME280;55510;49.560;19.090;2022-12-19T17:10:49;97835.41;;;-4.06;72.54
68508;BME280;55510;49.560;19.090;2022-12-19T17:13:55;97839.47;;;-3.90;72.38
68508;BME280;55510;49.560;19.090;2022-12-19T17:16:59;97835.94;;;-3.78;71.75
68508;BME280;55510;49.560;19.090;2022-12-19T17:20:04;97836.16;;;-3.81;71.51
68508;BME280;55510;49.560;19.090;2022-12-19T17:23:12;97841.94;;;-3.78;71.68
68508;BME280;55510;49.560;19.090;2022-12-19T17:26:13;97844.69;;;-3.79;72.16
68508;BME280;55510;49.560;19.090;2022-12-19T17:29:14;97831.91;;;-3.94;73.42
68508;BME280;55510;49.560;19.090;2022-12-19T17:32:15;97831.28;;;-3.97;74.52
68508;BME280;55510;49.560;19.090;2022-12-19T17:35:20;97832.41;;;-4.24;75.80
68508;BME280;55510;49.560;19.090;2022-12-19T17:38:21;97837.28;;;-4.55;77.41
68508;BME280;55510;49.560;19.090;2022-12-19T17:41:22;97852.13;;;-4.33;77.72
68508;BME280;55510;49.560;19.090;2022-12-19T17:44:23;97849.09;;;-4.15;76.10
68508;BME280;55510;49.560;19.090;2022-12-19T17:47:24;97834.84;;;-3.98;75.20
68508;BME280;55510;49.560;19.090;2022-12-19T17:50:28;97844.53;;;-3.89;75.16
68508;BME280;55510;49.560;19.090;2022-12-19T17:53:29;97841.38;;;-3.81;74.53
68508;BME280;55510;49.560;19.090;2022-12-19T17:56:30;97838.53;;;-3.78;74.49
68508;BME280;55510;49.560;19.090;2022-12-19T17:59:31;97843.50;;;-3.75;75.53
68508;BME280;55510;49.560;19.090;2022-12-19T18:02:32;97849.41;;;-3.61;74.59
68508;BME280;55510;49.560;19.090;2022-12-19T18:05:35;97849.69;;;-3.53;74.53
68508;BME280;55510;49.560;19.090;2022-12-19T18:08:37;97847.31;;;-3.33;73.73
68508;BME280;55510;49.560;19.090;2022-12-19T18:11:38;97845.88;;;-3.26;74.96
68508;BME280;55510;49.560;19.090;2022-12-19T18:14:38;97842.81;;;-3.31;74.45
68508;BME280;55510;49.560;19.090;2022-12-19T18:17:39;97833.13;;;-3.41;76.08
68508;BME280;55510;49.560;19.090;2022-12-19T18:20:42;97829.91;;;-3.33;76.60
68508;BME280;55510;49.560;19.090;2022-12-19T18:23:44;97841.63;;;-3.39;76.95
68508;BME280;55510;49.560;19.090;2022-12-19T18:26:45;97832.28;;;-3.41;78.10
68508;BME280;55510;49.560;19.090;2022-12-19T18:29:46;97826.47;;;-3.33;78.58
68508;BME280;55510;49.560;19.090;2022-12-19T18:35:50;97815.34;;;-3.24;78.25
68508;BME280;55510;49.560;19.090;2022-12-19T18:38:51;97819.69;;;-3.13;78.35
68508;BME280;55510;49.560;19.090;2022-12-19T18:41:52;97813.78;;;-3.15;78.50
68508;BME280;55510;49.560;19.090;2022-12-19T18:44:53;97804.78;;;-3.11;79.24
68508;BME280;55510;49.560;19.090;2022-12-19T18:47:56;97786.19;;;-3.07;78.70
68508;BME280;55510;49.560;19.090;2022-12-19T18:50:59;97774.84;;;-3.06;79.40
68508;BME280;55510;49.560;19.090;2022-12-19T18:54:00;97771.75;;;-3.11;79.46
68508;BME280;55510;49.560;19.090;2022-12-19T18:57:01;97777.78;;;-3.10;79.84
68508;BME280;55510;49.560;19.090;2022-12-19T19:00:02;97773.41;;;-3.10;80.17
68508;BME280;55510;49.560;19.090;2022-12-19T19:03:05;97773.38;;;-2.98;79.62
68508;BME280;55510;49.560;19.090;2022-12-19T19:06:22;97765.56;;;-2.98;79.95
68508;BME280;55510;49.560;19.090;2022-12-19T19:09:22;97767.69;;;-2.92;80.54
68508;BME280;55510;49.560;19.090;2022-12-19T19:12:23;97778.00;;;-2.69;79.27
68508;BME280;55510;49.560;19.090;2022-12-19T19:15:30;97775.72;;;-2.63;79.69
68508;BME280;55510;49.560;19.090;2022-12-19T19:18:37;97778.69;;;-2.67;80.28
68508;BME280;55510;49.560;19.090;2022-12-19T19:21:39;97762.66;;;-2.84;80.51
68508;BME280;55510;49.560;19.090;2022-12-19T19:24:40;97763.63;;;-2.85;81.29
68508;BME280;55510;49.560;19.090;2022-12-19T19:27:41;97763.25;;;-2.80;81.27
68508;BME280;55510;49.560;19.090;2022-12-19T19:30:42;97761.72;;;-2.83;81.99
68508;BME280;55510;49.560;19.090;2022-12-19T19:33:50;97762.09;;;-2.66;80.91
68508;BME280;55510;49.560;19.090;2022-12-19T19:36:53;97766.41;;;-2.65;80.44
68508;BME280;55510;49.560;19.090;2022-12-19T19:39:55;97774.66;;;-2.60;80.48
68508;BME280;55510;49.560;19.090;2022-12-19T19:42:56;97760.41;;;-2.56;79.92
68508;BME280;55510;49.560;19.090;2022-12-19T19:45:56;97761.16;;;-2.44;79.03
68508;BME280;55510;49.560;19.090;2022-12-19T19:48:57;97767.66;;;-2.38;78.88
68508;BME280;55510;49.560;19.090;2022-12-19T19:51:58;97764.53;;;-2.32;79.01
68508;BME280;55510;49.560;19.090;2022-12-19T19:54:59;97764.44;;;-2.30;78.93
68508;BME280;55510;49.560;19.090;2022-12-19T19:58:02;97762.19;;;-2.35;79.94
68508;BME280;55510;49.560;19.090;2022-12-19T20:01:11;97758.13;;;-2.28;79.03
68508;BME280;55510;49.560;19.090;2022-12-19T20:04:12;97760.03;;;-2.30;79.33
68508;BME280;55510;49.560;19.090;2022-12-19T20:07:13;97768.44;;;-2.26;79.52
68508;BME280;55510;49.560;19.090;2022-12-19T20:10:15;97771.16;;;-2.28;79.39
68508;BME280;55510;49.560;19.090;2022-12-19T20:13:15;97756.09;;;-2.24;79.29
68508;BME280;55510;49.560;19.090;2022-12-19T20:16:17;97745.53;;;-2.23;79.80
68508;BME280;55510;49.560;19.090;2022-12-19T20:19:18;97745.28;;;-2.20;79.93
68508;BME280;55510;49.560;19.090;2022-12-19T20:22:19;97750.50;;;-2.20;80.05
68508;BME280;55510;49.560;19.090;2022-12-19T20:25:20;97757.13;;;-2.15;80.08
68508;BME280;55510;49.560;19.090;2022-12-19T20:28:20;97758.53;;;-2.01;78.59
68508;BME280;55510;49.560;19.090;2022-12-19T20:31:22;97756.06;;;-2.03;79.03
68508;BME280;55510;49.560;19.090;2022-12-19T20:34:23;97753.31;;;-2.01;78.81
68508;BME280;55510;49.560;19.090;2022-12-19T20:37:25;97744.16;;;-1.96;78.29
68508;BME280;55510;49.560;19.090;2022-12-19T20:40:25;97748.56;;;-1.96;78.72
68508;BME280;55510;49.560;19.090;2022-12-19T20:43:26;97749.63;;;-1.99;78.85
68508;BME280;55510;49.560;19.090;2022-12-19T20:46:27;97750.34;;;-1.97;79.22
68508;BME280;55510;49.560;19.090;2022-12-19T20:49:28;97751.88;;;-1.84;78.68
68508;BME280;55510;49.560;19.090;2022-12-19T20:52:29;97746.41;;;-1.81;77.55
68508;BME280;55510;49.560;19.090;2022-12-19T20:55:31;97738.31;;;-1.78;77.82
68508;BME280;55510;49.560;19.090;2022-12-19T20:58:33;97751.13;;;-1.75;78.18
68508;BME280;55510;49.560;19.090;2022-12-19T21:01:35;97757.53;;;-1.79;77.83
68508;BME280;55510;49.560;19.090;2022-12-19T21:04:35;97752.91;;;-1.76;78.26
68508;BME280;55510;49.560;19.090;2022-12-19T21:07:36;97749.31;;;-1.75;78.14
68508;BME280;55510;49.560;19.090;2022-12-19T21:10:37;97750.16;;;-1.74;77.72
68508;BME280;55510;49.560;19.090;2022-12-19T21:13:38;97750.66;;;-1.80;78.16
68508;BME280;55510;49.560;19.090;2022-12-19T21:16:40;97740.22;;;-1.80;78.65
68508;BME280;55510;49.560;19.090;2022-12-19T21:19:41;97741.19;;;-1.81;78.51
68508;BME280;55510;49.560;19.090;2022-12-19T21:22:42;97734.75;;;-1.77;78.41
68508;BME280;55510;49.560;19.090;2022-12-19T21:25:42;97731.44;;;-1.79;78.42
68508;BME280;55510;49.560;19.090;2022-12-19T21:28:43;97734.63;;;-1.76;78.08
68508;BME280;55510;49.560;19.090;2022-12-19T21:31:44;97730.63;;;-1.80;78.15
68508;BME280;55510;49.560;19.090;2022-12-19T21:34:45;97728.13;;;-1.81;78.39
68508;BME280;55510;49.560;19.090;2022-12-19T21:37:45;97719.88;;;-1.86;79.03
68508;BME280;55510;49.560;19.090;2022-12-19T21:40:50;97728.13;;;-1.81;78.90
68508;BME280;55510;49.560;19.090;2022-12-19T21:43:52;97728.19;;;-1.71;77.45
68508;BME280;55510;49.560;19.090;2022-12-19T21:46:53;97719.97;;;-1.67;77.65
68508;BME280;55510;49.560;19.090;2022-12-19T21:49:54;97717.19;;;-1.75;77.63
68508;BME280;55510;49.560;19.090;2022-12-19T21:52:55;97713.06;;;-1.78;77.84
68508;BME280;55510;49.560;19.090;2022-12-19T21:56:22;97706.03;;;-1.77;78.04
68508;BME280;55510;49.560;19.090;2022-12-19T21:59:23;97698.09;;;-1.76;78.54
68508;BME280;55510;49.560;19.090;2022-12-19T22:02:24;97695.78;;;-1.69;77.39
68508;BME280;55510;49.560;19.090;2022-12-19T22:05:25;97691.38;;;-1.68;77.84
68508;BME280;55510;49.560;19.090;2022-12-19T22:08:25;97691.41;;;-1.58;78.27
68508;BME280;55510;49.560;19.090;2022-12-19T22:11:28;97693.59;;;-1.64;77.63
68508;BME280;55510;49.560;19.090;2022-12-19T22:14:28;97686.84;;;-1.66;77.99
68508;BME280;55510;49.560;19.090;2022-12-19T22:17:29;97680.38;;;-1.62;77.51
68508;BME280;55510;49.560;19.090;2022-12-19T22:20:30;97672.28;;;-1.59;77.72
68508;BME280;55510;49.560;19.090;2022-12-19T22:23:31;97676.00;;;-1.62;78.26
68508;BME280;55510;49.560;19.090;2022-12-19T22:26:32;97664.19;;;-1.66;78.64
68508;BME280;55510;49.560;19.090;2022-12-19T22:29:34;97671.06;;;-1.65;78.57
68508;BME280;55510;49.560;19.090;2022-12-19T22:32:35;97665.28;;;-1.58;78.81
68508;BME280;55510;49.560;19.090;2022-12-19T22:35:36;97666.09;;;-1.58;78.45
68508;BME280;55510;49.560;19.090;2022-12-19T22:38:40;97660.88;;;-1.58;78.75
68508;BME280;55510;49.560;19.090;2022-12-19T22:41:42;97659.53;;;-1.52;78.37
68508;BME280;55510;49.560;19.090;2022-12-19T22:44:43;97645.78;;;-1.54;78.78
68508;BME280;55510;49.560;19.090;2022-12-19T22:47:44;97656.81;;;-1.51;78.53
68508;BME280;55510;49.560;19.090;2022-12-19T22:50:44;97650.16;;;-1.55;78.70
68508;BME280;55510;49.560;19.090;2022-12-19T22:53:47;97656.34;;;-1.56;79.31
68508;BME280;55510;49.560;19.090;2022-12-19T22:56:49;97649.09;;;-1.52;78.66
68508;BME280;55510;49.560;19.090;2022-12-19T22:59:51;97636.72;;;-1.50;79.04
68508;BME280;55510;49.560;19.090;2022-12-19T23:02:52;97649.91;;;-1.42;78.82
68508;BME280;55510;49.560;19.090;2022-12-19T23:05:53;97651.72;;;-1.33;77.57
68508;BME280;55510;49.560;19.090;2022-12-19T23:08:53;97646.06;;;-1.38;78.14
68508;BME280;55510;49.560;19.090;2022-12-19T23:11:54;97638.91;;;-1.36;78.46
68508;BME280;55510;49.560;19.090;2022-12-19T23:14:55;97633.00;;;-1.38;78.50
68508;BME280;55510;49.560;19.090;2022-12-19T23:17:56;97634.53;;;-1.15;76.93
68508;BME280;55510;49.560;19.090;2022-12-19T23:21:07;97631.50;;;-1.11;77.27
68508;BME280;55510;49.560;19.090;2022-12-19T23:24:09;97638.38;;;-1.10;77.11
68508;BME280;55510;49.560;19.090;2022-12-19T23:27:10;97633.72;;;-1.16;77.47
68508;BME280;55510;49.560;19.090;2022-12-19T23:30:11;97627.94;;;-1.20;77.86
68508;BME280;55510;49.560;19.090;2022-12-19T23:33:11;97627.53;;;-1.25;78.12
68508;BME280;55510;49.560;19.090;2022-12-19T23:36:12;97631.94;;;-1.25;78.36
68508;BME280;55510;49.560;19.090;2022-12-19T23:39:13;97632.34;;;-1.20;77.84
68508;BME280;55510;49.560;19.090;2022-12-19T23:42:14;97627.00;;;-1.28;77.93
68508;BME280;55510;49.560;19.090;2022-12-19T23:45:15;97623.53;;;-1.29;78.36
68508;BME280;55510;49.560;19.090;2022-12-19T23:48:16;97628.47;;;-1.26;78.43
68508;BME280;55510;49.560;19.090;2022-12-19T23:51:18;97618.59;;;-1.22;78.11
68508;BME280;55510;49.560;19.090;2022-12-19T23:54:19;97611.03;;;-1.25;78.66
68508;BME280;55510;49.560;19.090;2022-12-19T23:57:23;97609.81;;;-1.21;78.49
